Time;durP1;ratioP1;P1;durP2;ratioP2;P2;SDS_P1;SDS_P2;PMS_P1;PMS_P2;Temp;Humidity;BMP_temperature;BMP_pressure;BME280_temperature;BME280_humidity;BME280_pressure;Samples;Min_cycle;Max_cycle;Signal;HPM_P1;HPM_P2
2023/10/16 00:01:27;;;;;;;41.45;14.88;;;;;;;-144.30;60.41;85060.50;5032953;28;20197;-60
2023/10/16 00:03:55;;;;;;;24.33;14.35;;;;;;;-144.30;60.32;85078.38;5033036;28;20253;-57
2023/10/16 00:06:23;;;;;;;28.38;15.27;;;;;;;-144.30;60.14;85066.44;5032851;28;20197;-57
2023/10/16 00:08:53;;;;;;;23.60;14.02;;;;;;;-144.30;60.17;85042.59;5032817;28;20204;-58
2023/10/16 00:11:23;;;;;;;39.40;15.05;;;;;;;-144.30;59.70;85046.56;5032890;28;20676;-58
2023/10/16 00:13:50;;;;;;;68.22;15.77;;;;;;;-144.30;59.32;85062.47;5032698;28;20292;-56
2023/10/16 00:16:18;;;;;;;49.67;14.38;;;;;;;-144.30;58.80;85062.47;5032652;28;20212;-57
2023/10/16 00:18:47;;;;;;;85.13;16.90;;;;;;;-144.30;58.29;85044.59;5032244;28;20202;-59
2023/10/16 00:21:14;;;;;;;66.18;17.58;;;;;;;-144.30;58.37;85098.25;5032232;28;20725;-58
2023/10/16 00:23:42;;;;;;;44.92;14.98;;;;;;;-144.30;58.51;85094.28;5032568;28;20590;-57
2023/10/16 00:26:12;;;;;;;51.35;14.35;;;;;;;-144.30;58.11;85090.31;5032406;28;20197;-57
2023/10/16 00:28:44;;;;;;;38.75;13.55;;;;;;;-144.30;57.96;85074.41;5032190;28;20233;-58
2023/10/16 00:31:14;;;;;;;35.25;12.57;;;;;;;-144.30;57.78;85096.25;5032214;28;20221;-58
2023/10/16 00:33:41;;;;;;;53.20;13.73;;;;;;;-144.30;58.13;85098.25;5032122;28;20201;-58
2023/10/16 00:36:10;;;;;;;47.05;12.20;;;;;;;-144.30;58.20;85126.09;5032568;28;20193;-60
2023/10/16 00:38:37;;;;;;;58.90;11.73;;;;;;;-144.30;57.66;85118.13;5031758;28;20197;-60
2023/10/16 00:41:16;;;;;;;77.60;13.73;;;;;;;-144.30;57.56;85104.22;5032160;28;20583;-57
2023/10/16 00:43:44;;;;;;;66.78;12.43;;;;;;;-144.30;57.59;85090.31;5031979;28;20707;-57
2023/10/16 00:46:19;;;;;;;43.08;10.68;;;;;;;-144.30;57.65;85102.22;5031782;28;20194;-58
2023/10/16 00:48:46;;;;;;;39.70;9.60;;;;;;;-144.30;57.04;85141.97;5031866;28;20207;-58
2023/10/16 00:51:16;;;;;;;34.90;9.27;;;;;;;-144.30;56.87;85141.97;5031765;28;20221;-58
2023/10/16 00:53:45;;;;;;;29.23;8.90;;;;;;;-144.30;56.69;85161.88;5031957;28;20679;-58
2023/10/16 00:56:14;;;;;;;43.97;9.57;;;;;;;-144.30;56.85;85149.94;5031886;28;20293;-60
2023/10/16 00:58:42;;;;;;;59.40;9.90;;;;;;;-144.30;56.99;85088.31;5031707;28;20591;-58
2023/10/16 01:01:09;;;;;;;15.20;7.37;;;;;;;-144.30;56.94;85201.63;5031739;28;20396;-57
2023/10/16 01:03:37;;;;;;;34.87;7.70;;;;;;;-144.30;56.92;85177.75;5031736;28;20193;-58
2023/10/16 01:06:09;;;;;;;16.60;8.53;;;;;;;-144.30;56.87;85179.75;5031717;28;20684;-57
2023/10/16 01:08:44;;;;;;;35.80;6.93;;;;;;;-144.30;56.48;85185.72;5031532;28;20280;-58
2023/10/16 01:11:14;;;;;;;44.17;8.60;;;;;;;-144.30;56.31;85179.75;5031472;28;20723;-58
2023/10/16 01:13:41;;;;;;;17.00;6.23;;;;;;;-144.30;56.11;85165.84;5031328;28;20292;-57
2023/10/16 01:16:09;;;;;;;20.00;6.93;;;;;;;-144.30;56.15;85195.66;5031529;28;20661;-58
2023/10/16 01:18:37;;;;;;;20.73;6.17;;;;;;;-144.30;56.11;85217.53;5031364;28;20292;-56
2023/10/16 01:21:05;;;;;;;16.73;6.47;;;;;;;-144.30;56.19;85193.66;5031249;28;20280;-57
2023/10/16 01:23:35;;;;;;;15.33;5.70;;;;;;;-144.30;56.63;85147.94;5031208;28;20198;-57
2023/10/16 01:26:02;;;;;;;17.00;6.77;;;;;;;-144.30;56.33;85193.66;5031170;28;20204;-61
2023/10/16 01:28:32;;;;;;;18.03;7.10;;;;;;;-144.30;55.95;85219.50;5031230;28;20228;-60
2023/10/16 01:31:00;;;;;;;27.13;6.80;;;;;;;-144.30;55.74;85189.69;5031045;28;20715;-61
2023/10/16 01:33:29;;;;;;;10.43;5.30;;;;;;;-144.30;55.87;85205.59;5031153;28;20274;-61
2023/10/16 01:35:57;;;;;;;13.67;5.37;;;;;;;-144.30;55.94;85209.56;5031056;28;20204;-57
2023/10/16 01:38:24;;;;;;;11.50;5.03;;;;;;;-144.30;55.78;85193.66;5030923;28;20707;-57
2023/10/16 01:41:07;;;;;;;10.37;5.03;;;;;;;-144.30;56.10;85147.94;5031074;28;20654;-57
2023/10/16 01:43:35;;;;;;;18.60;5.57;;;;;;;-144.30;55.56;85243.38;5031009;28;20193;-57
2023/10/16 01:46:07;;;;;;;17.40;5.87;;;;;;;-144.30;55.32;85229.44;5030750;28;20595;-57
2023/10/16 01:48:37;;;;;;;17.10;3.93;;;;;;;-144.30;55.47;85217.53;5043818;28;20197;-58
2023/10/16 01:51:05;;;;;;;7.17;3.83;;;;;;;-144.30;54.81;85241.38;5049734;28;20224;-58
2023/10/16 01:53:36;;;;;;;10.73;3.63;;;;;;;-144.30;54.45;85249.34;5050701;28;20200;-56
2023/10/16 01:56:12;;;;;;;18.27;3.77;;;;;;;-144.30;54.05;85245.34;5050717;28;20587;-58
2023/10/16 01:58:41;;;;;;;16.67;3.23;;;;;;;-144.30;53.88;85247.34;5050560;28;20298;-57
2023/10/16 02:01:09;;;;;;;11.37;3.07;;;;;;;-144.30;53.81;85229.44;5050468;28;20711;-56
2023/10/16 02:03:36;;;;;;;3.57;3.27;;;;;;;-144.30;54.04;85253.31;5050663;28;20205;-57
2023/10/16 02:06:03;;;;;;;8.57;3.40;;;;;;;-144.30;54.13;85263.25;5050688;28;20196;-57
2023/10/16 02:08:30;;;;;;;6.17;3.47;;;;;;;-144.30;54.02;85271.19;5050615;28;20594;-61
2023/10/16 02:10:58;;;;;;;65.40;5.87;;;;;;;-144.30;53.14;85273.19;5050372;28;20258;-62
2023/10/16 02:13:27;;;;;;;19.73;3.87;;;;;;;-144.30;53.43;85265.22;5050286;28;20287;-60
2023/10/16 02:15:53;;;;;;;14.37;3.00;;;;;;;-144.30;52.46;85279.16;5050171;28;20193;-62
2023/10/16 02:18:22;;;;;;;11.70;2.67;;;;;;;-144.30;52.37;85316.91;5050467;28;20609;-61
2023/10/16 02:20:50;;;;;;;7.57;2.70;;;;;;;-144.30;52.76;85305.00;5050088;28;20200;-60
2023/10/16 02:23:18;;;;;;;9.77;4.13;;;;;;;-144.30;53.30;85285.09;5050316;28;20207;-61
2023/10/16 02:25:46;;;;;;;3.43;2.77;;;;;;;-144.30;53.86;85265.22;5050095;28;20200;-60
2023/10/16 02:28:14;;;;;;;3.63;3.07;;;;;;;-144.30;53.61;85299.03;5049896;28;20228;-62
2023/10/16 02:30:42;;;;;;;10.20;3.67;;;;;;;-144.30;53.55;85269.22;5050023;28;20302;-58
2023/10/16 02:33:22;;;;;;;4.83;3.00;;;;;;;-144.30;53.36;85283.13;5050297;28;20200;-58
2023/10/16 02:35:50;;;;;;;4.90;2.40;;;;;;;-144.30;53.05;85305.00;5050208;28;20291;-57
2023/10/16 02:38:23;;;;;;;4.43;2.40;;;;;;;-144.30;52.63;85305.00;5050104;28;20634;-58
2023/10/16 02:40:53;;;;;;;4.87;2.63;;;;;;;-144.30;52.51;85287.09;5049897;28;20219;-61
2023/10/16 02:43:21;;;;;;;8.50;2.23;;;;;;;-144.30;51.50;85324.88;5050130;28;20682;-60
2023/10/16 02:45:52;;;;;;;3.53;2.50;;;;;;;-144.30;51.33;85291.06;5049944;28;20204;-59
2023/10/16 02:48:21;;;;;;;13.17;3.10;;;;;;;-144.30;51.21;85303.00;5050094;28;20203;-59
2023/10/16 02:50:54;;;;;;;12.83;2.30;;;;;;;-144.30;50.60;85285.09;5049800;28;20226;-60
2023/10/16 02:53:25;;;;;;;7.23;2.53;;;;;;;-144.30;50.41;85308.97;5049564;28;20202;-60
2023/10/16 02:55:57;;;;;;;6.03;1.93;;;;;;;-144.30;50.54;85263.25;5049014;28;20196;-57
2023/10/16 02:58:25;;;;;;;7.00;1.70;;;;;;;-144.30;50.41;85297.03;5049725;28;20200;-57
2023/10/16 03:00:55;;;;;;;2.17;1.63;;;;;;;-144.30;50.23;85299.03;5048916;28;20192;-58
2023/10/16 03:03:24;;;;;;;7.10;2.23;;;;;;;-144.30;50.38;85320.91;5050393;28;20198;-56
2023/10/16 03:05:52;;;;;;;6.53;1.83;;;;;;;-144.30;50.44;85332.81;5036437;28;20201;-56
2023/10/16 03:08:22;;;;;;;8.03;2.17;;;;;;;-144.30;50.02;85320.91;5042805;28;20339;-56
2023/10/16 03:10:49;;;;;;;7.90;2.00;;;;;;;-144.30;50.43;85316.91;5044061;28;20212;-60
2023/10/16 03:13:18;;;;;;;9.13;1.80;;;;;;;-144.30;50.39;85318.91;5044297;28;20212;-57
2023/10/16 03:15:47;;;;;;;5.90;1.70;;;;;;;-144.30;50.50;85312.94;5041538;28;20233;-61
2023/10/16 03:18:22;;;;;;;6.17;1.90;;;;;;;-144.30;50.58;85358.66;5044224;28;20201;-62
2023/10/16 03:20:50;;;;;;;3.13;1.40;;;;;;;-144.30;50.65;85336.78;5031766;28;20201;-57
2023/10/16 03:23:19;;;;;;;9.83;1.67;;;;;;;-144.30;50.94;85332.81;5034863;28;20664;-61
2023/10/16 03:25:52;;;;;;;7.40;1.73;;;;;;;-144.30;51.05;85320.91;5065288;28;20199;-57
2023/10/16 03:28:19;;;;;;;2.60;1.73;;;;;;;-144.30;52.12;85340.78;5045335;28;20240;-59
2023/10/16 03:30:47;;;;;;;11.20;2.33;;;;;;;-144.30;51.69;85312.94;5068977;28;20246;-58
2023/10/16 03:33:15;;;;;;;8.17;2.10;;;;;;;-144.30;51.67;85350.72;5072931;28;20204;-58
2023/10/16 03:35:45;;;;;;;10.17;2.17;;;;;;;-144.30;51.84;85330.84;5066099;28;20291;-56
2023/10/16 03:38:20;;;;;;;32.00;4.27;;;;;;;-144.30;51.92;85340.78;5057527;28;20207;-57
2023/10/16 03:40:51;;;;;;;15.10;3.00;;;;;;;-144.30;52.59;85366.63;5042465;28;20189;-56
2023/10/16 03:43:19;;;;;;;10.57;2.93;;;;;;;-144.30;53.37;85352.69;5041252;28;20201;-65
2023/10/16 03:45:46;;;;;;;33.17;3.70;;;;;;;-144.30;53.14;85396.44;5043130;28;20291;-63
2023/10/16 03:48:16;;;;;;;17.77;3.80;;;;;;;-144.30;53.26;85412.34;5039870;28;20205;-64
2023/10/16 03:50:46;;;;;;;14.07;3.80;;;;;;;-144.30;53.65;85392.47;5043236;28;20632;-63
2023/10/16 03:53:14;;;;;;;18.17;4.40;;;;;;;-144.30;53.82;85446.13;5042291;28;20193;-62
2023/10/16 03:55:43;;;;;;;33.47;4.40;;;;;;;-144.30;53.58;85446.13;5042673;28;20197;-61
2023/10/16 03:58:12;;;;;;;23.03;4.27;;;;;;;-144.30;53.78;85471.97;5038943;28;20690;-63
2023/10/16 04:00:50;;;;;;;12.50;4.57;;;;;;;-144.30;54.57;85454.09;5033450;28;20189;-62
2023/10/16 04:03:19;;;;;;;19.50;4.17;;;;;;;-144.30;54.28;85432.22;5042128;28;20739;-56
2023/10/16 04:05:47;;;;;;;12.97;5.17;;;;;;;-144.30;54.88;85440.16;5032871;28;20197;-56
2023/10/16 04:08:15;;;;;;;10.40;4.10;;;;;;;-144.30;54.77;85475.94;5039147;28;20200;-56
2023/10/16 04:10:46;;;;;;;20.23;4.77;;;;;;;-144.30;55.07;85503.78;5072549;28;20696;-56
2023/10/16 04:13:14;;;;;;;16.13;5.10;;;;;;;-144.30;55.73;85460.03;5071928;28;20672;-58
2023/10/16 04:18:32;;;;;;;23.93;6.50;;;;;;;-144.30;55.29;85499.81;5069605;28;20214;-56
2023/10/16 04:23:57;;;;;;;42.63;7.33;;;;;;;-144.30;55.69;85519.69;5031556;28;20283;-61
2023/10/16 04:26:47;;;;;;;39.30;6.70;;;;;;;-144.30;55.42;85468.00;5032612;28;20193;-61
2023/10/16 04:29:28;;;;;;;8.90;5.23;;;;;;;-144.30;55.56;85487.88;5036625;28;20715;-55
2023/10/16 04:31:58;;;;;;;16.17;5.20;;;;;;;-144.30;55.59;85519.69;5068965;28;20227;-61
2023/10/16 04:34:32;;;;;;;14.10;5.57;;;;;;;-144.30;55.96;85501.78;5069818;28;20707;-56
2023/10/16 04:45:59;;;;;;;7.93;5.00;;;;;;;-144.30;54.91;85491.84;5071819;28;20200;-55
2023/10/16 04:48:47;;;;;;;19.73;5.10;;;;;;;-144.30;54.67;85499.81;5072249;28;20202;-55
2023/10/16 04:51:22;;;;;;;17.20;5.30;;;;;;;-144.30;54.42;85493.84;5071926;28;20227;-56
2023/10/16 04:53:59;;;;;;;10.70;4.80;;;;;;;-144.30;53.84;85464.03;5072143;28;20201;-60
2023/10/16 04:56:57;;;;;;;24.90;5.10;;;;;;;-144.30;53.46;85525.66;5071632;28;20199;-60
2023/10/16 05:02:16;;;;;;;12.40;4.63;;;;;;;-144.30;53.22;85503.78;5071657;28;20202;-55
2023/10/16 05:04:59;;;;;;;13.10;4.63;;;;;;;-144.30;52.80;85495.84;5071515;28;20584;-56
2023/10/16 05:10:51;;;;;;;16.30;4.57;;;;;;;-144.30;52.29;85450.09;5071457;28;20198;-57
2023/10/16 05:18:46;;;;;;;33.10;5.83;;;;;;;-144.30;50.94;85535.59;5071441;28;20194;-60
2023/10/16 06:16:20;;;;;;;42.73;5.80;;;;;;;-144.30;47.84;85489.88;5070436;28;20195;-61
2023/10/16 06:18:48;;;;;;;65.30;7.93;;;;;;;-144.30;47.58;85563.41;5070446;28;20671;-57
2023/10/16 06:21:15;;;;;;;43.00;5.77;;;;;;;-144.30;47.68;85531.63;5070165;28;20202;-57
2023/10/16 06:23:48;;;;;;;53.13;8.60;;;;;;;-144.30;47.38;85475.94;5070144;28;20206;-58
2023/10/16 06:26:15;;;;;;;28.80;5.00;;;;;;;-144.30;46.58;85485.88;5070095;28;20287;-61
2023/10/16 06:28:48;;;;;;;21.07;4.57;;;;;;;-144.30;46.83;85495.84;5069868;28;20240;-61
2023/10/16 06:31:22;;;;;;;20.20;5.07;;;;;;;-144.30;46.26;85495.84;5070226;28;20297;-62
2023/10/16 06:33:56;;;;;;;31.10;5.90;;;;;;;-144.30;46.09;85376.56;5070159;28;20649;-57
2023/10/16 06:36:24;;;;;;;42.50;5.60;;;;;;;-144.30;45.41;85471.97;5069660;28;20589;-58
2023/10/16 06:38:51;;;;;;;41.17;5.60;;;;;;;-144.30;45.46;85442.16;5070008;28;20203;-57
2023/10/16 06:41:20;;;;;;;20.17;4.27;;;;;;;-144.30;45.46;85491.84;5070210;28;20192;-57
2023/10/16 06:43:48;;;;;;;13.80;5.20;;;;;;;-144.30;45.68;85487.88;5070129;28;20675;-57
2023/10/16 06:46:22;;;;;;;15.63;4.30;;;;;;;-144.30;45.04;85497.81;5069971;28;20204;-57
2023/10/16 06:48:52;;;;;;;24.87;5.10;;;;;;;-144.30;45.00;85456.06;5069921;28;20210;-57
2023/10/16 06:51:25;;;;;;;31.47;5.73;;;;;;;-144.30;44.67;85475.94;5070298;28;20219;-57
2023/10/16 06:53:53;;;;;;;27.93;5.57;;;;;;;-144.30;44.43;85436.19;5070073;28;20591;-59
2023/10/16 06:56:30;;;;;;;23.47;4.93;;;;;;;-144.30;44.45;85475.94;5070111;28;20701;-58
2023/10/16 06:58:58;;;;;;;18.77;4.13;;;;;;;-144.30;43.84;85487.88;5069771;28;20203;-57
2023/10/16 07:01:26;;;;;;;37.47;4.83;;;;;;;-144.30;43.76;86185.72;5069682;28;20611;-58
2023/10/16 07:03:55;;;;;;;19.73;4.87;;;;;;;-144.30;43.55;85497.81;5069820;28;20207;-56
2023/10/16 07:06:24;;;;;;;60.20;8.20;;;;;;;-144.30;43.17;85462.03;5070100;28;20196;-57
2023/10/16 07:08:52;;;;;;;35.33;5.37;;;;;;;-144.30;42.97;85446.13;5069741;28;20196;-61
2023/10/16 07:11:21;;;;;;;14.03;4.80;;;;;;;-144.30;42.79;85456.06;5069542;28;20223;-61
2023/10/16 07:13:48;;;;;;;14.43;4.23;;;;;;;-144.30;41.94;85428.25;5069584;28;20192;-61
2023/10/16 07:16:16;;;;;;;60.17;8.50;;;;;;;-144.30;41.39;85470.00;5069502;28;20749;-61
2023/10/16 07:18:43;;;;;;;23.43;4.37;;;;;;;-144.30;41.50;85501.78;5069853;28;20624;-61
2023/10/16 07:21:17;;;;;;;24.47;5.40;;;;;;;-144.30;41.93;85475.94;5069574;28;20200;-60
2023/10/16 07:23:44;;;;;;;23.27;4.17;;;;;;;-144.30;41.23;85460.03;5069449;28;20195;-61
2023/10/16 07:26:16;;;;;;;16.33;3.63;;;;;;;-144.30;41.03;85430.22;5069322;28;20265;-60
2023/10/16 07:28:48;;;;;;;20.90;4.17;;;;;;;-144.30;40.36;85696.63;5069381;28;20652;-60
2023/10/16 07:31:16;;;;;;;16.27;3.67;;;;;;;-144.30;40.50;85479.94;5069568;28;20253;-61
2023/10/16 07:33:45;;;;;;;12.10;3.93;;;;;;;-144.30;40.38;85501.78;5069498;28;20196;-61
2023/10/16 07:36:13;;;;;;;15.10;4.30;;;;;;;-144.30;40.36;85473.97;5051105;28;20200;-58
2023/10/16 07:38:41;;;;;;;24.20;4.33;;;;;;;-144.30;40.09;85356.69;5062475;28;20196;-56
2023/10/16 07:41:12;;;;;;;39.83;5.20;;;;;;;-144.30;39.70;85468.00;5068920;28;20203;-57
2023/10/16 07:43:45;;;;;;;31.87;4.03;;;;;;;-144.30;39.43;85436.19;5069109;28;20581;-57
2023/10/16 07:46:27;;;;;;;27.93;4.97;;;;;;;-144.30;39.19;85452.09;5068614;28;20204;-57
2023/10/16 07:48:54;;;;;;;21.67;4.23;;;;;;;-144.30;39.23;85468.00;5070466;28;20235;-58
2023/10/16 07:51:25;;;;;;;28.70;4.13;;;;;;;-144.30;38.66;85416.31;5071882;28;20192;-58
2023/10/16 07:53:53;;;;;;;18.13;4.20;;;;;;;-144.30;38.36;85408.34;5072779;28;20261;-57
2023/10/16 07:56:25;;;;;;;26.60;3.83;;;;;;;-144.30;38.38;85426.25;5063100;28;20212;-57
2023/10/16 07:58:56;;;;;;;50.97;5.83;;;;;;;-144.30;37.69;85420.28;5032554;28;20705;-57
2023/10/16 08:01:42;;;;;;;19.23;3.80;;;;;;;-144.30;37.84;85418.31;5054637;28;20661;-61
2023/10/16 08:04:27;;;;;;;15.33;4.10;;;;;;;-144.30;37.67;85299.03;5072246;28;20219;-59
2023/10/16 08:06:57;;;;;;;15.90;4.13;;;;;;;-144.30;37.46;85384.50;5072507;28;20313;-61
2023/10/16 08:12:18;;;;;;;19.50;3.30;;;;;;;-144.30;37.33;85432.22;5072205;28;20735;-60
2023/10/16 08:14:45;;;;;;;14.93;2.97;;;;;;;-144.30;37.09;85384.50;5072024;28;20664;-63
2023/10/16 08:17:16;;;;;;;9.03;3.00;;;;;;;-144.30;36.92;85390.47;5072550;28;20196;-61
2023/10/16 08:19:43;;;;;;;9.23;3.00;;;;;;;-144.30;36.98;85392.47;5072485;28;20196;-61
2023/10/16 08:22:13;;;;;;;7.30;2.87;;;;;;;-144.30;36.47;85390.47;5072229;28;20192;-60
2023/10/16 08:24:44;;;;;;;9.87;4.10;;;;;;;-144.30;36.39;85376.56;5072194;28;20203;-61
2023/10/16 08:27:19;;;;;;;30.23;3.67;;;;;;;-144.30;36.22;85360.66;5072411;28;20191;-59
2023/10/16 08:29:54;;;;;;;17.40;3.20;;;;;;;-144.30;36.08;85372.56;5070342;28;20207;-60
2023/10/16 08:32:53;;;;;;;8.17;2.57;;;;;;;-144.30;35.73;85209.56;5032258;28;20323;-57
2023/10/16 08:35:19;;;;;;;14.67;3.40;;;;;;;-144.30;35.38;85291.06;5032002;28;20220;-57
2023/10/16 08:37:56;;;;;;;21.60;3.07;;;;;;;-144.30;35.34;85295.06;5032248;28;20202;-57
2023/10/16 08:40:32;;;;;;;20.00;3.53;;;;;;;-144.30;34.62;85279.16;5032219;28;20196;-56
2023/10/16 08:43:01;;;;;;;12.43;2.70;;;;;;;-144.30;34.00;85251.31;5032186;28;20236;-58
2023/10/16 08:45:29;;;;;;;22.03;4.33;;;;;;;-144.30;33.45;85263.25;5032070;28;20212;-57
2023/10/16 08:47:57;;;;;;;17.37;3.10;;;;;;;-144.30;33.69;84909.41;5032038;28;20205;-57
2023/10/16 08:50:40;;;;;;;23.73;3.47;;;;;;;-144.30;32.95;85187.69;5031846;28;20255;-61
2023/10/16 08:53:30;;;;;;;9.00;2.60;;;;;;;-144.30;33.04;85126.09;5031720;28;20224;-61
2023/10/16 08:55:58;;;;;;;12.10;3.20;;;;;;;-144.30;32.75;85169.81;5031818;28;20198;-60
2023/10/16 08:58:26;;;;;;;9.33;2.27;;;;;;;-144.30;32.43;85132.03;5032044;28;20678;-60
2023/10/16 09:00:55;;;;;;;11.43;2.30;;;;;;;-144.30;32.45;85157.88;5031325;28;20205;-61
2023/10/16 09:03:24;;;;;;;8.07;2.70;;;;;;;-144.30;32.62;85165.84;5031196;28;20201;-61
2023/10/16 09:05:51;;;;;;;24.57;3.17;;;;;;;-144.30;32.57;85141.97;5041191;28;20202;-60
2023/10/16 09:08:19;;;;;;;24.77;12.13;;;;;;;-144.30;32.38;85165.84;5041495;28;20197;-61
2023/10/16 09:10:49;;;;;;;16.70;2.70;;;;;;;-144.30;31.88;85116.16;5040063;28;20197;-60
2023/10/16 09:13:17;;;;;;;14.40;2.70;;;;;;;-144.30;31.94;85134.03;5035322;28;20231;-64
2023/10/16 09:15:46;;;;;;;11.00;2.83;;;;;;;-144.30;32.90;85205.59;5031632;28;20743;-64
2023/10/16 09:18:16;;;;;;;5.73;2.53;;;;;;;-144.30;32.43;85203.59;5031034;28;20197;-64
2023/10/16 09:20:43;;;;;;;12.97;3.30;;;;;;;-144.30;32.36;85191.69;5031405;28;20197;-56
2023/10/16 09:23:22;;;;;;;9.17;2.47;;;;;;;-144.30;32.40;85475.94;5031311;28;20295;-56
2023/10/16 09:25:55;;;;;;;8.17;2.20;;;;;;;-144.30;32.27;85155.91;5031568;28;20228;-56
2023/10/16 09:28:22;;;;;;;6.70;3.07;;;;;;;-144.30;31.90;85118.13;5030944;28;20229;-55
2023/10/16 09:30:50;;;;;;;2.73;2.00;;;;;;;-144.30;31.54;85082.34;5031227;28;20193;-57
2023/10/16 09:33:17;;;;;;;9.97;2.00;;;;;;;-144.30;30.58;85122.09;5031432;28;20225;-63
2023/10/16 09:35:46;;;;;;;3.40;1.93;;;;;;;-144.30;30.31;85062.47;5030959;28;20197;-63
2023/10/16 09:38:17;;;;;;;6.63;2.20;;;;;;;-144.30;30.55;85052.53;5031038;28;20293;-63
2023/10/16 09:40:45;;;;;;;6.73;2.10;;;;;;;-144.30;30.60;85074.41;5030957;28;20201;-63
2023/10/16 09:43:24;;;;;;;5.35;2.00;;;;;;;-144.30;30.40;85010.78;5032756;28;20189;-62
2023/10/16 09:46:21;;;;;;;9.18;1.95;;;;;;;-144.30;30.94;85090.31;5040082;28;20294;-57
2023/10/16 09:48:42;;;;;;;9.35;2.42;;;;;;;-144.30;30.62;85112.16;5041062;28;20207;-57
2023/10/16 09:51:12;;;;;;;5.28;1.92;;;;;;;-144.30;31.01;85090.31;5043415;28;20208;-57
2023/10/16 09:53:39;;;;;;;13.52;3.00;;;;;;;-144.30;30.59;85074.41;5051148;28;20646;-56
2023/10/16 09:56:12;;;;;;;5.00;2.43;;;;;;;-144.30;30.09;85066.44;5039427;28;20201;-61
2023/10/16 09:58:45;;;;;;;11.75;3.90;;;;;;;-144.30;29.89;85068.44;5030492;28;20275;-57
2023/10/16 10:01:23;;;;;;;19.30;5.72;;;;;;;-144.30;29.94;85006.81;5030516;28;20201;-58
2023/10/16 10:03:50;;;;;;;18.27;6.88;;;;;;;-144.30;29.63;85046.56;5030506;28;20293;-56
2023/10/16 10:06:21;;;;;;;6.00;4.57;;;;;;;-144.30;29.84;85032.66;5030498;28;20193;-60
2023/10/16 10:09:20;;;;;;;18.83;8.88;;;;;;;-144.30;29.41;85050.53;5030440;28;20201;-62
2023/10/16 10:11:47;;;;;;;36.95;16.67;;;;;;;-144.30;28.96;84998.88;5029676;28;20247;-61
2023/10/16 10:14:27;;;;;;;34.88;18.42;;;;;;;-144.30;29.12;85018.75;5030380;28;20609;-59
2023/10/16 10:16:57;;;;;;;38.03;15.32;;;;;;;-144.30;28.31;85018.75;5030338;28;20205;-62
2023/10/16 10:19:32;;;;;;;36.53;18.98;;;;;;;-144.30;27.79;84975.00;5030292;28;20201;-61
2023/10/16 10:22:05;;;;;;;29.15;13.77;;;;;;;-144.30;27.49;84996.88;5030334;28;20193;-61
2023/10/16 10:24:34;;;;;;;9.82;7.38;;;;;;;-144.30;27.15;85002.84;5030208;28;20193;-61
2023/10/16 10:27:04;;;;;;;6.28;4.00;;;;;;;-144.30;26.60;85010.78;5030423;28;20685;-61
2023/10/16 10:29:34;;;;;;;53.33;29.42;;;;;;;-144.30;26.48;84979.00;5029917;28;20621;-61
2023/10/16 10:32:12;;;;;;;35.10;21.00;;;;;;;-144.30;26.50;84955.13;5029952;28;20204;-61
2023/10/16 10:34:39;;;;;;;28.92;11.00;;;;;;;-144.30;26.14;84982.97;5030531;28;20196;-60
2023/10/16 10:37:39;;;;;;;12.18;4.75;;;;;;;-144.30;26.19;84990.91;5030223;28;20582;-57
2023/10/16 10:40:15;;;;;;;7.45;2.40;;;;;;;-144.30;26.00;84945.19;5030626;28;20223;-61
2023/10/16 10:42:42;;;;;;;6.32;2.70;;;;;;;-144.30;25.95;84975.00;5030385;28;20247;-61
2023/10/16 10:47:56;;;;;;;7.63;2.30;;;;;;;-144.30;25.59;84971.03;5026103;28;20233;-61
2023/10/16 10:50:24;;;;;;;4.63;2.38;;;;;;;-144.30;25.67;84961.09;5030147;28;20251;-60
2023/10/16 10:52:51;;;;;;;3.42;1.85;;;;;;;-144.30;25.92;84967.06;5029808;28;20236;-62
2023/10/16 10:55:22;;;;;;;7.50;3.58;;;;;;;-144.30;25.97;84919.34;5029980;28;20263;-61
2023/10/16 10:57:58;;;;;;;14.65;6.63;;;;;;;-144.30;25.69;84937.25;5030201;28;20197;-61
2023/10/16 11:00:45;;;;;;;8.77;6.13;;;;;;;-144.30;25.73;84947.19;5029943;28;20192;-57
2023/10/16 11:03:30;;;;;;;6.43;4.28;;;;;;;-144.30;25.75;84935.25;5033934;28;20203;-57
2023/10/16 11:05:57;;;;;;;7.25;2.20;;;;;;;-144.30;25.78;84943.22;5067107;28;20196;-56
2023/10/16 11:08:31;;;;;;;5.28;1.90;;;;;;;-144.30;25.85;84909.41;5054414;28;20201;-57
2023/10/16 11:11:00;;;;;;;2.60;2.40;;;;;;;-144.30;25.81;84903.47;5049259;28;20200;-57
2023/10/16 11:13:27;;;;;;;26.42;8.05;;;;;;;-144.30;25.50;84931.28;5049201;28;20220;-58
2023/10/16 11:16:00;;;;;;;4.05;3.65;;;;;;;-144.30;25.43;84847.81;5049707;28;20208;-57
2023/10/16 11:18:28;;;;;;;2.85;1.48;;;;;;;-144.30;25.37;84963.09;5049723;28;20242;-57
2023/10/16 11:20:59;;;;;;;1.42;1.17;;;;;;;-144.30;25.16;84931.28;5049890;28;20197;-58
2023/10/16 11:23:31;;;;;;;1.58;1.20;;;;;;;-144.30;25.21;84941.22;5051580;28;20578;-57
2023/10/16 11:25:58;;;;;;;1.30;1.10;;;;;;;-144.30;25.04;84927.31;5053459;28;20680;-57
2023/10/16 11:28:31;;;;;;;5.20;1.10;;;;;;;-144.30;24.98;84877.63;5053152;28;20316;-57
2023/10/16 11:31:04;;;;;;;3.63;1.20;;;;;;;-144.30;24.96;84937.25;5053474;28;20254;-61
2023/10/16 11:33:43;;;;;;;3.50;0.93;;;;;;;-144.30;24.86;84885.56;5053510;28;20302;-61
2023/10/16 11:36:13;;;;;;;1.23;1.13;;;;;;;-144.30;24.87;84941.22;5053463;28;20287;-60
2023/10/16 11:38:40;;;;;;;4.57;1.15;;;;;;;-144.30;24.95;84829.91;5053307;28;20236;-61
2023/10/16 11:41:12;;;;;;;4.60;1.42;;;;;;;-144.30;24.74;84953.16;5050238;28;20212;-59
2023/10/16 11:43:47;;;;;;;1.85;1.33;;;;;;;-144.30;24.88;84907.44;5052694;28;20196;-61
2023/10/16 11:49:17;;;;;;;4.35;1.80;;;;;;;-144.30;24.84;84925.31;5050117;28;20196;-60
2023/10/16 11:51:46;;;;;;;1.63;1.40;;;;;;;-144.30;24.94;84943.22;5053440;28;20677;-58
2023/10/16 11:54:19;;;;;;;1.42;1.33;;;;;;;-144.30;24.83;84921.34;5053091;28;20289;-57
2023/10/16 11:56:47;;;;;;;1.90;1.30;;;;;;;-144.30;24.94;84935.25;5052989;28;20204;-62
2023/10/16 11:59:15;;;;;;;2.67;1.20;;;;;;;-144.30;24.81;84977.00;5053037;28;20205;-60
2023/10/16 12:01:45;;;;;;;5.30;1.00;;;;;;;-144.30;24.97;84994.91;5052995;28;20616;-61
2023/10/16 12:04:16;;;;;;;1.80;0.95;;;;;;;-144.30;24.82;84982.97;5054462;28;20266;-60
2023/10/16 12:06:45;;;;;;;3.83;1.17;;;;;;;-144.30;24.83;84984.97;5071987;28;20214;-56
2023/10/16 12:09:19;;;;;;;1.63;1.23;;;;;;;-144.30;24.88;84975.00;5051210;28;20203;-57
2023/10/16 12:11:46;;;;;;;1.33;1.23;;;;;;;-144.30;24.94;84959.13;5060090;28;20196;-58
2023/10/16 12:14:13;;;;;;;2.55;1.73;;;;;;;-144.30;24.66;84955.13;5061831;28;20276;-57
2023/10/16 12:16:45;;;;;;;3.95;1.98;;;;;;;-144.30;24.67;84949.19;5052116;28;20209;-58
2023/10/16 12:19:12;;;;;;;2.20;2.00;;;;;;;-144.30;24.72;84961.09;5045845;28;20193;-57
2023/10/16 12:21:39;;;;;;;2.63;2.42;;;;;;;-144.30;24.76;84897.50;5041054;28;20197;-56
2023/10/16 12:24:07;;;;;;;2.85;2.65;;;;;;;-144.30;24.58;84971.03;5042350;28;20287;-57
2023/10/16 12:26:34;;;;;;;6.93;2.70;;;;;;;-144.30;24.37;84963.09;5036163;28;20197;-56
2023/10/16 12:29:02;;;;;;;5.07;2.60;;;;;;;-144.30;24.40;84959.13;5040541;28;20708;-58
2023/10/16 12:31:28;;;;;;;4.07;2.60;;;;;;;-144.30;24.67;84931.28;5041180;28;20223;-57
2023/10/16 12:33:57;;;;;;;7.43;3.15;;;;;;;-144.30;24.69;84931.28;5040953;28;20213;-60
2023/10/16 12:36:25;;;;;;;6.10;3.83;;;;;;;-144.30;24.54;84951.16;5040946;28;20200;-61
2023/10/16 12:38:53;;;;;;;6.18;3.85;;;;;;;-144.30;24.31;84871.66;5041475;28;20204;-60
2023/10/16 12:41:21;;;;;;;6.53;2.90;;;;;;;-144.30;24.63;84893.53;5040914;28;20193;-60
2023/10/16 12:43:50;;;;;;;4.47;3.08;;;;;;;-144.30;24.69;84831.91;5041730;28;20195;-61
2023/10/16 12:46:17;;;;;;;4.55;2.60;;;;;;;-144.30;24.76;84951.16;5032191;28;20193;-56
2023/10/16 12:48:45;;;;;;;3.30;3.00;;;;;;;-144.30;24.70;85209.56;5040257;28;20189;-57
2023/10/16 12:51:13;;;;;;;2.78;2.40;;;;;;;-144.30;24.81;84937.25;5041608;28;20194;-58
2023/10/16 12:53:41;;;;;;;2.38;2.08;;;;;;;-144.30;25.17;84903.47;5040647;28;20237;-57
2023/10/16 12:56:12;;;;;;;2.60;2.40;;;;;;;-144.30;25.13;84973.03;5041992;28;20713;-59
2023/10/16 12:58:38;;;;;;;4.82;2.70;;;;;;;-144.30;25.08;84943.22;5042495;28;20207;-57